Time;durP1;ratioP1;P1;durP2;ratioP2;P2;SDS_P1;SDS_P2;PMS_P1;PMS_P2;Temp;Humidity;BMP_temperature;BMP_pressure;BME280_temperature;BME280_humidity;BME280_pressure;Samples;Min_cycle;Max_cycle;Signal;HPM_P1;HPM_P2
2022/09/28 00:02:07;;;;;;;;;;;8.80;99.90;;;;;;5068069;28;19957;-72
2022/09/28 00:04:33;;;;;;;;;;;8.80;99.90;;;;;;5073480;28;19920;-67
2022/09/28 00:06:59;;;;;;;;;;;8.80;99.90;;;;;;5068676;28;19916;-68
2022/09/28 00:09:25;;;;;;;;;;;8.80;99.90;;;;;;5069522;28;19920;-67
2022/09/28 00:11:52;;;;;;;;;;;8.80;99.90;;;;;;5070312;28;19924;-67
2022/09/28 00:14:18;;;;;;;;;;;8.70;99.90;;;;;;5053820;28;19927;-69
2022/09/28 00:16:44;;;;;;;;;;;8.70;99.90;;;;;;5070182;28;19927;-71
2022/09/28 00:19:10;;;;;;;;;;;8.70;99.90;;;;;;5070771;28;20003;-68
2022/09/28 00:21:37;;;;;;;;;;;8.70;99.90;;;;;;5068800;28;19999;-68
2022/09/28 00:24:13;;;;;;;;;;;8.70;99.90;;;;;;5068398;28;19920;-67
2022/09/28 00:26:43;;;;;;;;;;;8.70;99.90;;;;;;5073959;28;19966;-67
2022/09/28 00:29:17;;;;;;;;;;;8.60;99.90;;;;;;5069574;28;19920;-70
2022/09/28 00:31:42;;;;;;;;;;;8.60;99.90;;;;;;5072373;28;19969;-68
2022/09/28 00:34:08;;;;;;;;;;;8.60;99.90;;;;;;5069776;28;20313;-66
2022/09/28 00:36:34;;;;;;;;;;;8.60;99.90;;;;;;5053080;28;19927;-70
2022/09/28 00:39:02;;;;;;;;;;;8.60;99.90;;;;;;5054092;28;19923;-69
2022/09/28 00:41:28;;;;;;;;;;;8.50;99.90;;;;;;5069524;28;20018;-69
2022/09/28 00:44:13;;;;;;;;;;;8.50;99.90;;;;;;5069498;28;20015;-70
2022/09/28 00:46:39;;;;;;;;;;;8.50;99.90;;;;;;5055443;28;19924;-69
2022/09/28 00:49:08;;;;;;;;;;;8.50;99.90;;;;;;5073489;28;19920;-70
2022/09/28 00:51:33;;;;;;;;;;;8.50;99.90;;;;;;5074589;28;19920;-67
2022/09/28 00:54:00;;;;;;;;;;;8.50;99.90;;;;;;5068425;28;20022;-71
2022/09/28 00:56:27;;;;;;;;;;;8.50;99.90;;;;;;5068542;28;19999;-68
2022/09/28 00:58:53;;;;;;;;;;;8.40;99.90;;;;;;5071482;28;19951;-66
2022/09/28 01:01:19;;;;;;;;;;;8.50;99.90;;;;;;5052084;28;19924;-70
2022/09/28 01:03:47;;;;;;;;;;;8.40;99.90;;;;;;5069555;28;19920;-67
2022/09/28 01:06:20;;;;;;;;;;;8.40;99.90;;;;;;5052036;28;19921;-68
2022/09/28 01:08:47;;;;;;;;;;;8.40;99.90;;;;;;5052148;28;20003;-66
2022/09/28 01:11:12;;;;;;;;;;;8.40;99.90;;;;;;5067255;28;19985;-68
2022/09/28 01:13:39;;;;;;;;;;;8.30;99.90;;;;;;5069992;28;19920;-69
2022/09/28 01:16:24;;;;;;;;;;;8.30;99.90;;;;;;5070523;28;19923;-70
2022/09/28 01:19:08;;;;;;;;;;;8.30;99.90;;;;;;5051911;28;19916;-68
2022/09/28 01:21:49;;;;;;;;;;;8.20;99.90;;;;;;5071272;28;20290;-69
2022/09/28 01:24:33;;;;;;;;;;;8.20;99.90;;;;;;5099093;28;19917;-67
2022/09/28 01:27:02;;;;;;;;;;;8.20;99.90;;;;;;5066357;28;19935;-68
2022/09/28 01:29:34;;;;;;;;;;;8.20;99.90;;;;;;5069942;28;19920;-68
2022/09/28 01:32:26;;;;;;;;;;;8.10;99.90;;;;;;5068315;28;19920;-70
2022/09/28 01:34:57;;;;;;;;;;;8.10;99.90;;;;;;5011330;28;19927;-69
2022/09/28 01:37:28;;;;;;;;;;;8.10;99.90;;;;;;4994689;28;19917;-68
2022/09/28 01:39:54;;;;;;;;;;;8.00;99.90;;;;;;5041820;28;20026;-68
2022/09/28 01:42:26;;;;;;;;;;;8.00;99.90;;;;;;4995331;28;20055;-67
2022/09/28 01:44:53;;;;;;;;;;;8.00;99.90;;;;;;5012544;28;20437;-68
2022/09/28 01:47:20;;;;;;;;;;;8.00;99.90;;;;;;4992895;28;20401;-68
2022/09/28 01:49:59;;;;;;;;;;;8.00;99.90;;;;;;4994926;28;20012;-69
2022/09/28 01:52:28;;;;;;;;;;;8.00;99.90;;;;;;5022275;28;20043;-66
2022/09/28 01:54:57;;;;;;;;;;;8.00;99.90;;;;;;4974818;28;19928;-70
2022/09/28 01:57:30;;;;;;;;;;;8.00;99.90;;;;;;4992230;28;20331;-66
2022/09/28 02:00:06;;;;;;;;;;;8.00;99.90;;;;;;4992886;28;19924;-68
2022/09/28 02:02:35;;;;;;;;;;;8.00;99.90;;;;;;5023102;28;19956;-67
2022/09/28 02:05:06;;;;;;;;;;;8.00;99.90;;;;;;4990825;28;20008;-72
2022/09/28 02:07:36;;;;;;;;;;;8.00;99.90;;;;;;4992600;28;19925;-67
2022/09/28 02:10:11;;;;;;;;;;;8.00;99.90;;;;;;4992639;28;20339;-69
2022/09/28 02:12:40;;;;;;;;;;;8.00;99.90;;;;;;5041416;28;20007;-69
2022/09/28 02:15:26;;;;;;;;;;;8.10;99.90;;;;;;5044994;28;19917;-68
2022/09/28 02:17:52;;;;;;;;;;;8.20;99.90;;;;;;5080109;28;19927;-69
2022/09/28 02:20:19;;;;;;;;;;;8.20;99.90;;;;;;5050791;28;20564;-70
2022/09/28 02:22:49;;;;;;;;;;;8.20;99.90;;;;;;5052715;28;19921;-70
2022/09/28 02:25:38;;;;;;;;;;;8.30;99.90;;;;;;5051553;28;19920;-68
2022/09/28 02:28:04;;;;;;;;;;;8.30;99.90;;;;;;5035474;28;19927;-70
2022/09/28 02:30:31;;;;;;;;;;;8.30;99.90;;;;;;5050706;28;19924;-68
2022/09/28 02:33:17;;;;;;;;;;;8.30;99.90;;;;;;5052024;28;19917;-69
2022/09/28 02:35:42;;;;;;;;;;;8.30;99.90;;;;;;5051517;28;20003;-67
2022/09/28 02:38:11;;;;;;;;;;;8.30;99.90;;;;;;5035580;28;20016;-69
2022/09/28 02:40:37;;;;;;;;;;;8.30;99.90;;;;;;5050757;28;19927;-68
2022/09/28 02:43:02;;;;;;;;;;;8.30;99.90;;;;;;5053283;28;19920;-70
2022/09/28 02:45:46;;;;;;;;;;;8.30;99.90;;;;;;5054535;28;19924;-69
2022/09/28 02:48:12;;;;;;;;;;;8.30;99.90;;;;;;5072931;28;19916;-70
2022/09/28 02:50:45;;;;;;;;;;;8.30;99.90;;;;;;5071882;28;20349;-66
2022/09/28 02:53:11;;;;;;;;;;;8.30;99.90;;;;;;5073772;28;19999;-68
2022/09/28 02:55:41;;;;;;;;;;;8.30;99.90;;;;;;5073314;28;19998;-67
2022/09/28 02:58:17;;;;;;;;;;;8.30;99.90;;;;;;5074982;28;20007;-69
2022/09/28 03:00:45;;;;;;;;;;;8.30;99.90;;;;;;5057234;28;20010;-67
2022/09/28 03:03:19;;;;;;;;;;;8.20;99.90;;;;;;5057688;28;19924;-69
2022/09/28 03:05:44;;;;;;;;;;;8.20;99.90;;;;;;5074058;28;19921;-68
2022/09/28 03:08:29;;;;;;;;;;;8.30;99.90;;;;;;5073639;28;19931;-68
2022/09/28 03:10:59;;;;;;;;;;;8.30;99.90;;;;;;5072078;28;20288;-67
2022/09/28 03:13:25;;;;;;;;;;;8.30;99.90;;;;;;5069233;28;19924;-67
2022/09/28 03:15:51;;;;;;;;;;;8.30;99.90;;;;;;5071318;28;19920;-70
2022/09/28 03:18:16;;;;;;;;;;;8.30;99.90;;;;;;5072079;28;19939;-69
2022/09/28 03:20:42;;;;;;;;;;;8.40;99.90;;;;;;5059760;28;20281;-67
2022/09/28 03:23:07;;;;;;;;;;;8.40;99.90;;;;;;5072335;28;19927;-69
2022/09/28 03:25:33;;;;;;;;;;;8.40;99.90;;;;;;5072254;28;20223;-70
2022/09/28 03:27:59;;;;;;;;;;;8.40;99.90;;;;;;5071943;28;20019;-68
2022/09/28 03:30:24;;;;;;;;;;;8.30;99.90;;;;;;5071927;28;19920;-66
2022/09/28 03:32:57;;;;;;;;;;;8.30;99.90;;;;;;5071155;28;20331;-68
2022/09/28 03:35:22;;;;;;;;;;;8.40;99.90;;;;;;5072394;28;19966;-68
2022/09/28 03:37:48;;;;;;;;;;;8.40;99.90;;;;;;5076338;28;19920;-69
2022/09/28 03:40:13;;;;;;;;;;;8.30;99.90;;;;;;5055106;28;19916;-67
2022/09/28 03:42:39;;;;;;;;;;;8.40;99.90;;;;;;5051027;28;19927;-67
2022/09/28 03:45:05;;;;;;;;;;;8.40;99.90;;;;;;5069174;28;20264;-69
2022/09/28 03:47:30;;;;;;;;;;;8.40;99.90;;;;;;5104129;28;19967;-66
2022/09/28 03:49:56;;;;;;;;;;;8.40;99.90;;;;;;5073244;28;19930;-69
2022/09/28 03:52:21;;;;;;;;;;;8.40;99.90;;;;;;5074961;28;20294;-67
2022/09/28 03:54:47;;;;;;;;;;;8.40;99.90;;;;;;5071417;28;19916;-67
2022/09/28 03:57:12;;;;;;;;;;;8.50;99.90;;;;;;5074062;28;20371;-66
2022/09/28 03:59:38;;;;;;;;;;;8.40;99.90;;;;;;5067686;28;20283;-67
2022/09/28 04:02:04;;;;;;;;;;;8.40;99.90;;;;;;5073368;28;20282;-66
2022/09/28 04:04:30;;;;;;;;;;;8.40;99.90;;;;;;5053611;28;19999;-70
2022/09/28 04:06:55;;;;;;;;;;;8.30;99.90;;;;;;5054057;28;20389;-67
2022/09/28 04:09:21;;;;;;;;;;;8.30;99.90;;;;;;5073449;28;20286;-67
2022/09/28 04:11:46;;;;;;;;;;;8.30;99.90;;;;;;5077853;28;19920;-67
2022/09/28 04:14:12;;;;;;;;;;;8.30;99.90;;;;;;5070809;28;19925;-67
2022/09/28 04:16:37;;;;;;;;;;;8.30;99.90;;;;;;5070794;28;19994;-66
2022/09/28 04:19:03;;;;;;;;;;;8.30;99.90;;;;;;5072219;28;19977;-68
2022/09/28 04:21:29;;;;;;;;;;;8.30;99.90;;;;;;5057219;28;19982;-68
2022/09/28 04:23:54;;;;;;;;;;;8.30;99.90;;;;;;5074582;28;19946;-69
2022/09/28 04:26:23;;;;;;;;;;;8.30;99.90;;;;;;5049297;28;20289;-66
2022/09/28 04:31:37;;;;;;;;;;;8.30;99.90;;;;;;5068925;28;20272;-69
2022/09/28 04:34:03;;;;;;;;;;;8.30;99.90;;;;;;5074113;28;19923;-67
2022/09/28 04:36:28;;;;;;;;;;;8.30;99.90;;;;;;5066974;28;20297;-66
2022/09/28 04:38:54;;;;;;;;;;;8.30;99.90;;;;;;5069446;28;19917;-69
2022/09/28 04:41:21;;;;;;;;;;;8.30;99.90;;;;;;5069920;28;19935;-69
2022/09/28 04:43:46;;;;;;;;;;;8.30;99.90;;;;;;5068640;28;20349;-68
2022/09/28 04:46:12;;;;;;;;;;;8.30;99.90;;;;;;5070173;28;19927;-67
2022/09/28 04:48:37;;;;;;;;;;;8.20;99.90;;;;;;5070821;28;20346;-70
2022/09/28 04:51:03;;;;;;;;;;;8.30;99.90;;;;;;5071367;28;19924;-67
2022/09/28 04:53:29;;;;;;;;;;;8.30;99.90;;;;;;5070557;28;19963;-66
2022/09/28 04:56:01;;;;;;;;;;;8.30;99.90;;;;;;5069128;28;19920;-69
2022/09/28 04:58:28;;;;;;;;;;;8.30;99.90;;;;;;5069603;28;20035;-70
2022/09/28 05:00:56;;;;;;;;;;;8.30;99.90;;;;;;5053601;28;19969;-67
2022/09/28 05:03:22;;;;;;;;;;;8.30;99.90;;;;;;5068557;28;19963;-68
2022/09/28 05:05:48;;;;;;;;;;;8.30;99.90;;;;;;5069089;28;20509;-66
2022/09/28 05:08:14;;;;;;;;;;;8.30;99.90;;;;;;5070378;28;20057;-68
2022/09/28 05:10:39;;;;;;;;;;;8.40;99.90;;;;;;5068764;28;19916;-67
2022/09/28 05:13:05;;;;;;;;;;;8.30;99.90;;;;;;5053342;28;19916;-66
2022/09/28 05:15:32;;;;;;;;;;;8.30;99.90;;;;;;5070037;28;20275;-68
2022/09/28 05:17:58;;;;;;;;;;;8.30;99.90;;;;;;5053602;28;19927;-68
2022/09/28 05:20:23;;;;;;;;;;;8.30;99.90;;;;;;5070511;28;19920;-69
2022/09/28 05:22:49;;;;;;;;;;;8.40;99.90;;;;;;5069751;28;19916;-66
2022/09/28 05:25:14;;;;;;;;;;;8.30;99.90;;;;;;5069809;28;20278;-69
2022/09/28 05:27:40;;;;;;;;;;;8.40;99.90;;;;;;5053075;28;20429;-67
2022/09/28 05:30:06;;;;;;;;;;;8.40;99.90;;;;;;5070009;28;20321;-67
2022/09/28 05:32:31;;;;;;;;;;;8.40;99.90;;;;;;5069385;28;20386;-67
2022/09/28 05:34:59;;;;;;;;;;;8.40;99.90;;;;;;5064237;28;20286;-67
2022/09/28 05:37:25;;;;;;;;;;;8.40;99.90;;;;;;5069067;28;20558;-68
2022/09/28 05:39:51;;;;;;;;;;;8.50;99.90;;;;;;5068614;28;19920;-70
2022/09/28 05:42:16;;;;;;;;;;;8.50;99.90;;;;;;5069207;28;20436;-69
2022/09/28 05:44:42;;;;;;;;;;;8.50;99.90;;;;;;5065209;28;20023;-69
2022/09/28 05:47:07;;;;;;;;;;;8.50;99.90;;;;;;5055708;28;20398;-69
2022/09/28 05:49:33;;;;;;;;;;;8.40;99.90;;;;;;5066997;28;19916;-70
2022/09/28 05:51:58;;;;;;;;;;;8.40;99.90;;;;;;5051945;28;20286;-68
2022/09/28 05:54:24;;;;;;;;;;;8.40;99.90;;;;;;5070292;28;19927;-69
2022/09/28 05:56:49;;;;;;;;;;;8.50;99.90;;;;;;5075903;28;19916;-69
2022/09/28 05:59:15;;;;;;;;;;;8.50;99.90;;;;;;5076158;28;19920;-68
2022/09/28 06:01:41;;;;;;;;;;;8.50;99.90;;;;;;5076045;28;19916;-70
2022/09/28 06:04:07;;;;;;;;;;;8.50;99.90;;;;;;5076119;28;19916;-68
2022/09/28 06:06:33;;;;;;;;;;;8.50;99.90;;;;;;5075796;28;19927;-67
2022/09/28 06:08:59;;;;;;;;;;;8.50;99.90;;;;;;5075927;28;19917;-67
2022/09/28 06:11:25;;;;;;;;;;;8.60;99.90;;;;;;5078823;28;19921;-71
2022/09/28 06:13:54;;;;;;;;;;;8.60;99.90;;;;;;5075591;28;19924;-66
2022/09/28 06:16:20;;;;;;;;;;;8.60;99.90;;;;;;5075826;28;19916;-67
2022/09/28 06:18:45;;;;;;;;;;;8.70;99.90;;;;;;5075681;28;19922;-66
2022/09/28 06:21:11;;;;;;;;;;;8.70;99.90;;;;;;5059404;28;20371;-67
2022/09/28 06:23:37;;;;;;;;;;;8.70;99.90;;;;;;5075439;28;19924;-68
2022/09/28 06:26:03;;;;;;;;;;;8.70;99.90;;;;;;5073628;28;19917;-69
2022/09/28 06:28:28;;;;;;;;;;;8.70;99.90;;;;;;5060583;28;20272;-67
2022/09/28 06:30:54;;;;;;;;;;;8.80;99.90;;;;;;5073208;28;20023;-68
2022/09/28 06:33:19;;;;;;;;;;;8.80;99.90;;;;;;5076166;28;19920;-67
2022/09/28 06:35:45;;;;;;;;;;;8.90;99.90;;;;;;5074398;28;19920;-68
2022/09/28 06:38:10;;;;;;;;;;;8.90;99.90;;;;;;5075956;28;19931;-69
2022/09/28 06:40:36;;;;;;;;;;;8.90;99.90;;;;;;5075874;28;19920;-68
2022/09/28 06:43:05;;;;;;;;;;;8.90;99.90;;;;;;5075714;28;19966;-67
2022/09/28 06:45:31;;;;;;;;;;;8.90;99.90;;;;;;5075758;28;19928;-69
2022/09/28 06:47:58;;;;;;;;;;;9.00;99.90;;;;;;5074766;28;19977;-69
2022/09/28 06:50:24;;;;;;;;;;;9.00;99.90;;;;;;5076003;28;19942;-66
2022/09/28 06:52:50;;;;;;;;;;;9.00;99.90;;;;;;5059169;28;19927;-66
2022/09/28 06:55:16;;;;;;;;;;;9.10;99.90;;;;;;5074859;28;20398;-67
2022/09/28 06:57:41;;;;;;;;;;;9.20;99.90;;;;;;5077424;28;19920;-66
2022/09/28 07:00:07;;;;;;;;;;;9.20;99.90;;;;;;5059155;28;19917;-67
2022/09/28 07:02:33;;;;;;;;;;;9.30;99.90;;;;;;5075694;28;19973;-70
2022/09/28 07:04:58;;;;;;;;;;;9.40;99.90;;;;;;5075063;28;19917;-69
2022/09/28 07:07:24;;;;;;;;;;;9.50;99.90;;;;;;5055803;28;20244;-69
2022/09/28 07:09:53;;;;;;;;;;;9.50;99.90;;;;;;5074289;28;19920;-67
2022/09/28 07:12:20;;;;;;;;;;;9.60;99.90;;;;;;5072099;28;19920;-66
2022/09/28 07:14:45;;;;;;;;;;;9.70;99.90;;;;;;5075328;28;19916;-67
2022/09/28 07:17:11;;;;;;;;;;;9.80;99.90;;;;;;5071055;28;19927;-69
2022/09/28 07:19:36;;;;;;;;;;;9.90;99.90;;;;;;5072253;28;20104;-69
2022/09/28 07:22:02;;;;;;;;;;;10.00;99.90;;;;;;5072011;28;20387;-66
2022/09/28 07:24:29;;;;;;;;;;;10.10;99.90;;;;;;5070717;28;20050;-70
2022/09/28 07:26:54;;;;;;;;;;;10.10;99.90;;;;;;5071943;28;19917;-70
2022/09/28 07:29:20;;;;;;;;;;;10.10;99.90;;;;;;5071695;28;19931;-69
2022/09/28 07:31:46;;;;;;;;;;;10.10;99.90;;;;;;5067349;28;19940;-66
2022/09/28 07:34:11;;;;;;;;;;;10.00;99.90;;;;;;5054341;28;19920;-69
2022/09/28 07:36:37;;;;;;;;;;;10.00;99.90;;;;;;5072363;28;20393;-68
2022/09/28 07:39:03;;;;;;;;;;;10.00;99.90;;;;;;5071655;28;20382;-68
2022/09/28 07:41:32;;;;;;;;;;;10.00;99.90;;;;;;5075055;28;19952;-67
2022/09/28 07:44:04;;;;;;;;;;;10.20;99.90;;;;;;5067088;28;19920;-67
2022/09/28 07:46:34;;;;;;;;;;;10.40;99.90;;;;;;5051816;28;20433;-67
2022/09/28 07:48:59;;;;;;;;;;;10.60;99.90;;;;;;5069209;28;19916;-69
2022/09/28 07:51:25;;;;;;;;;;;10.80;99.90;;;;;;5069421;28;19943;-69
2022/09/28 07:53:53;;;;;;;;;;;11.00;99.90;;;;;;5071679;28;19920;-69
2022/09/28 07:56:19;;;;;;;;;;;11.10;99.90;;;;;;5068984;28;19924;-70
2022/09/28 07:58:45;;;;;;;;;;;11.10;99.90;;;;;;5071650;28;19986;-68
2022/09/28 08:01:13;;;;;;;;;;;11.20;99.90;;;;;;5071679;28;20375;-67
2022/09/28 08:03:39;;;;;;;;;;;11.20;99.90;;;;;;5071513;28;19920;-69
2022/09/28 08:06:11;;;;;;;;;;;11.30;99.90;;;;;;5071338;28;19939;-71
2022/09/28 08:08:38;;;;;;;;;;;11.20;99.90;;;;;;5054487;28;19917;-69
2022/09/28 08:11:05;;;;;;;;;;;11.20;99.90;;;;;;5071215;28;20011;-69
2022/09/28 08:13:30;;;;;;;;;;;11.20;99.90;;;;;;5054144;28;19917;-69
2022/09/28 08:15:59;;;;;;;;;;;11.30;99.90;;;;;;5071146;28;20280;-70
2022/09/28 08:18:25;;;;;;;;;;;11.60;99.90;;;;;;5070714;28;19916;-67
2022/09/28 08:23:36;;;;;;;;;;;12.10;99.90;;;;;;5070773;28;19928;-67
2022/09/28 08:26:01;;;;;;;;;;;12.00;99.90;;;;;;5071023;28;20283;-68
2022/09/28 08:28:27;;;;;;;;;;;11.90;99.90;;;;;;5069030;28;19920;-66
2022/09/28 08:30:53;;;;;;;;;;;11.90;99.90;;;;;;5069302;28;19924;-68
2022/09/28 08:33:21;;;;;;;;;;;11.80;99.90;;;;;;5071325;28;19920;-66
2022/09/28 08:35:47;;;;;;;;;;;11.70;99.90;;;;;;5096672;28;20339;-67
2022/09/28 08:38:13;;;;;;;;;;;11.60;99.90;;;;;;5053389;28;20001;-66
2022/09/28 08:40:46;;;;;;;;;;;11.60;99.90;;;;;;5070504;28;19943;-66
2022/09/28 08:43:41;;;;;;;;;;;11.60;99.90;;;;;;5071669;28;19927;-71
2022/09/28 08:46:08;;;;;;;;;;;11.90;99.90;;;;;;5022287;28;19960;-68
2022/09/28 08:48:43;;;;;;;;;;;12.10;99.90;;;;;;5012607;28;19928;-69
2022/09/28 08:51:14;;;;;;;;;;;12.30;99.90;;;;;;5012077;28;20061;-68
2022/09/28 08:55:28;;;;;;;10.85;5.90;;;12.70;99.90;;;;;;5087873;27;20791;-68
2022/09/28 09:00:57;;;;;;;6.70;4.20;;;12.80;99.90;;;;;;5159403;27;20501;-67
2022/09/28 09:03:30;;;;;;;5.80;4.13;;;13.00;99.90;;;;;;5152743;27;20038;-69
2022/09/28 09:06:17;;;;;;;6.20;4.28;;;13.10;99.90;;;;;;5133016;27;20043;-69
2022/09/28 09:09:09;;;;;;;4.45;3.90;;;13.30;99.90;;;;;;5169154;27;20044;-70
2022/09/28 09:11:55;;;;;;;3.28;2.97;;;13.40;99.90;;;;;;5065604;28;20056;-68
2022/09/28 09:14:50;;;;;;;4.38;2.53;;;13.80;99.90;;;;;;5102219;28;20056;-69
2022/09/28 09:17:34;;;;;;;4.75;3.72;;;13.90;99.90;;;;;;5090078;28;20052;-71
2022/09/28 09:20:21;;;;;;;4.38;2.90;;;14.30;99.90;;;;;;5100145;28;20118;-69
2022/09/28 09:23:01;;;;;;;7.13;3.30;;;14.00;99.90;;;;;;5052325;28;20049;-69
2022/09/28 09:25:32;;;;;;;5.25;3.38;;;13.80;99.90;;;;;;5068648;28;20582;-70
2022/09/28 09:29:50;;;;;;;3.67;2.83;;;13.60;99.90;;;;;;5128515;27;20163;-70
2022/09/28 09:32:42;;;;;;;3.40;2.60;;;13.40;99.90;;;;;;5127029;28;20410;-68
2022/09/28 09:35:29;;;;;;;3.10;2.60;;;13.30;99.90;;;;;;5125771;28;20043;-70
2022/09/28 09:38:29;;;;;;;12.02;4.00;;;13.40;99.90;;;;;;5125525;27;20035;-71
2022/09/28 09:41:29;;;;;;;4.07;3.03;;;13.50;99.90;;;;;;5128060;27;20034;-69
2022/09/28 09:44:04;;;;;;;4.28;2.75;;;13.50;99.90;;;;;;5126723;28;20043;-68
2022/09/28 09:47:03;;;;;;;4.72;2.85;;;13.90;99.90;;;;;;5126835;28;20513;-69
2022/09/28 09:49:47;;;;;;;2.40;2.20;;;14.00;99.90;;;;;;5127101;28;20058;-70
2022/09/28 09:52:25;;;;;;;1.88;1.40;;;14.00;99.90;;;;;;5126028;27;20092;-71
2022/09/28 09:54:57;;;;;;;2.65;1.92;;;13.80;99.90;;;;;;5109054;28;20447;-69
2022/09/28 09:57:22;;;;;;;;;;;13.50;99.90;;;;;;5126205;28;20082;-70
2022/09/28 09:59:48;;;;;;;3.92;2.30;;;13.60;99.90;;;;;;5126505;27;19963;-68
2022/09/28 10:02:24;;;;;;;2.78;2.00;;;13.70;99.90;;;;;;5129381;27;20060;-70
2022/09/28 10:04:55;;;;;;;4.50;2.35;;;13.80;99.90;;;;;;5125760;28;20482;-71
2022/09/28 10:07:32;;;;;;;2.80;2.60;;;13.80;99.90;;;;;;5126345;28;20046;-68
2022/09/28 10:10:01;;;;;;;4.50;2.63;;;13.80;99.90;;;;;;5126587;28;20027;-70
2022/09/28 10:12:28;;;;;;;5.20;2.00;;;13.70;99.90;;;;;;5126427;28;20077;-68
2022/09/28 10:14:54;;;;;;;2.80;1.85;;;13.80;99.90;;;;;;5126702;27;20052;-69
2022/09/28 10:17:26;;;;;;;2.42;1.70;;;14.40;99.90;;;;;;5126571;28;20035;-71
2022/09/28 10:19:53;;;;;;;1.85;1.30;;;14.80;99.90;;;;;;5108446;27;20083;-71
2022/09/28 10:22:21;;;;;;;3.45;1.20;;;14.80;99.90;;;;;;5124807;28;20074;-71
2022/09/28 10:24:53;;;;;;;2.50;1.10;;;14.80;99.90;;;;;;5126516;28;20041;-66
2022/09/28 10:27:24;;;;;;;2.55;1.30;;;14.90;99.90;;;;;;5108136;28;20111;-67
2022/09/28 10:29:55;;;;;;;1.85;1.40;;;15.00;99.90;;;;;;5107864;28;20036;-69
2022/09/28 10:32:23;;;;;;;2.85;1.80;;;15.00;99.90;;;;;;5107322;28;20031;-69
2022/09/28 10:34:51;;;;;;;2.92;1.75;;;14.90;99.90;;;;;;5108977;28;20466;-70
2022/09/28 10:37:17;;;;;;;1.75;1.42;;;14.70;99.90;;;;;;5109237;28;20114;-69
2022/09/28 10:39:52;;;;;;;3.92;1.40;;;14.50;99.90;;;;;;5101272;28;20042;-67
2022/09/28 10:42:22;;;;;;;3.00;1.40;;;14.40;99.90;;;;;;5095697;28;20036;-70
2022/09/28 10:44:52;;;;;;;4.35;1.50;;;14.90;99.90;;;;;;5080819;27;20490;-71
2022/09/28 10:47:21;;;;;;;3.25;1.88;;;15.30;99.90;;;;;;5094531;28;20036;-69
2022/09/28 10:49:49;;;;;;;1.80;1.33;;;15.80;99.90;;;;;;5092697;28;20073;-69
2022/09/28 10:52:35;;;;;;;1.15;0.95;;;16.20;99.90;;;;;;5076682;28;20272;-68
2022/09/28 10:55:22;;;;;;;2.33;0.90;;;16.40;99.90;;;;;;5095138;28;20036;-68
2022/09/28 10:57:48;;;;;;;1.50;0.88;;;16.30;99.90;;;;;;5095212;28;20375;-69
2022/09/28 11:00:37;;;;;;;2.72;0.90;;;16.10;99.90;;;;;;5093907;28;20058;-67
2022/09/28 11:03:04;;;;;;;4.10;1.05;;;15.70;99.90;;;;;;5095045;28;20046;-70
2022/09/28 11:05:31;;;;;;;1.23;0.60;;;15.50;99.90;;;;;;5093939;28;20043;-67
2022/09/28 11:08:05;;;;;;;2.63;0.60;;;15.30;99.90;;;;;;5091434;28;20051;-67
2022/09/28 11:10:32;;;;;;;1.98;0.77;;;15.20;99.90;;;;;;5096168;28;20039;-69
2022/09/28 11:12:58;;;;;;;3.28;0.90;;;14.80;99.90;;;;;;5094591;28;20118;-71
2022/09/28 11:15:39;;;;;;;2.10;0.60;;;14.40;99.90;;;;;;5094785;27;20855;-69
2022/09/28 11:18:33;;;;;;;2.55;0.70;;;14.00;99.90;;;;;;5094497;27;20492;-69
2022/09/28 11:21:23;;;;;;;1.00;0.70;;;13.70;99.90;;;;;;4992575;28;20050;-70
2022/09/28 11:24:06;;;;;;;0.90;0.80;;;13.60;99.90;;;;;;4993971;28;20038;-67
2022/09/28 11:26:43;;;;;;;1.23;0.70;;;13.60;99.90;;;;;;4991564;28;20466;-69
2022/09/28 11:29:40;;;;;;;1.45;0.65;;;13.50;99.90;;;;;;5007617;28;20045;-69
2022/09/28 11:32:07;;;;;;;1.33;1.15;;;13.40;99.90;;;;;;5012717;28;20047;-69
2022/09/28 11:34:42;;;;;;;1.05;0.77;;;13.30;99.90;;;;;;5013190;28;20516;-71
2022/09/28 11:37:39;;;;;;;2.75;0.80;;;13.20;99.90;;;;;;5027267;28;20449;-68
2022/09/28 11:40:11;;;;;;;1.80;0.80;;;13.20;99.90;;;;;;5028833;28;20040;-68
2022/09/28 11:43:10;;;;;;;1.60;0.65;;;13.10;99.90;;;;;;5012545;28;20484;-67
2022/09/28 11:45:58;;;;;;;0.93;0.70;;;13.10;99.90;;;;;;5011956;28;20050;-68
2022/09/28 11:48:31;;;;;;;1.60;0.95;;;13.00;99.90;;;;;;5012937;28;20515;-67
2022/09/28 11:51:21;;;;;;;1.33;0.70;;;13.00;99.90;;;;;;5011635;28;20508;-68
2022/09/28 11:54:01;;;;;;;2.90;0.80;;;12.90;99.90;;;;;;5012927;28;20045;-67
2022/09/28 11:56:41;;;;;;;1.15;1.00;;;12.90;99.90;;;;;;5012785;28;20046;-68
2022/09/28 11:59:20;;;;;;;1.30;0.80;;;12.90;99.90;;;;;;5108812;28;20055;-68
2022/09/28 12:01:52;;;;;;;1.00;0.90;;;13.00;99.90;;;;;;5110047;28;20035;-68
2022/09/28 12:04:22;;;;;;;1.25;0.60;;;13.10;99.90;;;;;;5109207;28;20508;-65
2022/09/28 12:07:19;;;;;;;1.27;0.73;;;13.30;99.90;;;;;;5141522;27;20153;-67
2022/09/28 12:09:53;;;;;;;0.80;0.52;;;13.40;99.90;;;;;;5113471;27;20035;-66
2022/09/28 12:12:57;;;;;;;0.98;0.50;;;13.50;99.90;;;;;;5111575;27;20066;-69
2022/09/28 12:15:28;;;;;;;1.42;0.70;;;13.70;99.90;;;;;;5112847;27;20035;-70
2022/09/28 12:17:59;;;;;;;1.30;0.65;;;13.80;99.90;;;;;;5110628;28;20071;-67
2022/09/28 12:20:42;;;;;;;1.98;0.50;;;13.90;99.90;;;;;;5110982;28;20038;-66
2022/09/28 12:23:32;;;;;;;0.73;0.50;;;13.90;99.90;;;;;;5110791;27;20103;-65
2022/09/28 12:26:01;;;;;;;2.05;0.63;;;13.90;99.90;;;;;;5110487;28;20058;-68
2022/09/28 12:28:40;;;;;;;1.00;0.50;;;13.70;99.90;;;;;;5110467;27;20060;-65
2022/09/28 12:31:44;;;;;;;4.20;0.90;;;13.60;99.90;;;;;;5110216;28;20075;-67
2022/09/28 12:34:10;;;;;;;0.90;0.50;;;13.20;99.90;;;;;;5031916;28;20045;-67
2022/09/28 12:36:46;;;;;;;0.77;0.28;;;13.30;99.90;;;;;;5031043;28;20450;-69
2022/09/28 12:39:17;;;;;;;1.70;0.43;;;12.50;99.90;;;;;;5047728;28;20091;-67
2022/09/28 12:42:20;;;;;;;1.50;0.30;;;12.30;99.90;;;;;;5031845;28;20094;-67
2022/09/28 12:45:03;;;;;;;1.83;0.47;;;12.10;99.90;;;;;;5030202;28;20060;-65
2022/09/28 12:47:35;;;;;;;0.47;0.30;;;12.10;99.90;;;;;;5032031;28;20080;-65
2022/09/28 12:50:19;;;;;;;0.95;0.40;;;11.90;99.90;;;;;;5031903;28;20044;-65
2022/09/28 12:53:18;;;;;;;2.15;0.20;;;11.90;99.90;;;;;;5063762;28;20037;-66
2022/09/28 12:56:00;;;;;;;0.90;0.47;;;11.80;99.90;;;;;;5015147;28;20107;-66
2022/09/28 12:58:54;;;;;;;1.45;0.20;;;11.80;99.90;;;;;;5012468;28;20523;-64
2022/09/28 13:02:20;;;;;;;1.30;0.50;;;11.70;99.90;;;;;;4953534;28;20578;-65
2022/09/28 13:05:13;;;;;;;1.38;0.40;;;11.70;99.90;;;;;;4858879;29;20132;-67
2022/09/28 13:07:52;;;;;;;1.15;0.40;;;11.80;99.90;;;;;;4858870;29;20044;-67
2022/09/28 13:10:41;;;;;;;0.60;0.47;;;11.80;99.90;;;;;;4907453;28;20057;-67
2022/09/28 13:13:55;;;;;;;0.88;0.50;;;11.90;99.90;;;;;;4933873;29;20410;-65
2022/09/28 13:16:30;;;;;;;2.42;0.52;;;12.00;99.90;;;;;;4837349;29;20053;-67
2022/09/28 13:19:10;;;;;;;2.10;0.70;;;12.10;99.90;;;;;;4854155;29;20088;-65
2022/09/28 13:21:49;;;;;;;1.35;0.70;;;12.20;99.90;;;;;;4840134;29;20064;-69
2022/09/28 13:24:26;;;;;;;1.05;0.60;;;12.20;99.90;;;;;;4852626;29;20521;-67
2022/09/28 13:26:55;;;;;;;1.13;0.40;;;12.20;99.90;;;;;;4840434;29;20515;-67
2022/09/28 13:29:21;;;;;;;1.15;0.55;;;12.60;99.90;;;;;;4839857;29;20049;-68
2022/09/28 13:31:57;;;;;;;2.00;0.60;;;12.70;99.90;;;;;;4840080;29;20189;-68
2022/09/28 13:34:31;;;;;;;0.85;0.60;;;12.70;99.90;;;;;;4850047;29;20044;-68
2022/09/28 13:37:24;;;;;;;6.03;1.02;;;12.60;99.90;;;;;;4911715;29;20044;-69
2022/09/28 13:40:04;;;;;;;3.40;0.60;;;12.60;99.90;;;;;;4972238;28;20496;-68
2022/09/28 13:42:51;;;;;;;2.17;0.65;;;12.60;99.90;;;;;;4972586;28;20517;-66
2022/09/28 13:45:20;;;;;;;1.15;0.60;;;12.60;99.90;;;;;;4972381;28;20413;-67
2022/09/28 13:48:10;;;;;;;2.05;0.60;;;12.60;99.90;;;;;;4972424;28;20038;-68
2022/09/28 13:50:54;;;;;;;0.50;0.50;;;12.70;99.90;;;;;;4972350;28;20048;-68
2022/09/28 13:53:53;;;;;;;3.60;0.70;;;12.70;99.90;;;;;;5070752;28;20490;-65
2022/09/28 13:56:45;;;;;;;2.50;0.73;;;12.60;99.90;;;;;;5109339;28;20035;-66
2022/09/28 13:59:29;;;;;;;2.65;0.60;;;12.60;99.90;;;;;;5109053;28;20055;-68
2022/09/28 14:02:02;;;;;;;1.73;0.60;;;12.70;99.90;;;;;;5108222;28;20055;-66
2022/09/28 14:04:51;;;;;;;0.95;0.88;;;12.70;99.90;;;;;;5109168;28;20039;-67
2022/09/28 14:07:42;;;;;;;1.13;0.63;;;12.70;99.90;;;;;;5109110;28;20402;-67
2022/09/28 14:10:23;;;;;;;0.47;0.35;;;12.70;99.90;;;;;;5108578;28;20520;-66
2022/09/28 14:12:53;;;;;;;1.75;0.63;;;12.70;99.90;;;;;;5109205;28;20040;-68
2022/09/28 14:15:28;;;;;;;1.15;0.95;;;12.80;99.90;;;;;;5111473;28;20063;-66
2022/09/28 14:18:10;;;;;;;1.65;0.70;;;12.80;99.90;;;;;;5112925;28;20044;-67
2022/09/28 14:20:36;;;;;;;1.55;0.70;;;12.80;99.90;;;;;;5112928;28;20039;-67
2022/09/28 14:23:15;;;;;;;2.20;0.80;;;12.90;99.90;;;;;;5096270;28;20040;-68
2022/09/28 14:26:00;;;;;;;1.23;0.68;;;12.90;99.90;;;;;;5112835;28;20064;-67
2022/09/28 14:28:40;;;;;;;1.05;0.50;;;13.00;99.90;;;;;;5112536;28;20119;-66